Polfry, Mississippi
Current Conditions -  °F | °C
As of 4:58 PM on Thursday 27 Nov 2014 (Local Time) from KBIX Reporting Station
Clear Clear  
Wind Chill: 54°   Ceiling: Unl
Heat Index: 54°   Visibility: 10mi
Dew Point: 32°   Wind: 3mph
Humidity: 43%   Direction: NA
Pressure: 30.4"   Gusts: NA
Location:  30.418°N, 88.7558°W
Report Text: KBIX 272258Z AUTO VRB03KT 10SM CLR 12/00 A3040 RMK AO2 SLP298 T01231001
Loading
Personal Weather Stations






























Interactive Weather Map New forecast layout! Learn more

10-Day Weather Forecast

Advertisements
Track Severe Weather on mobile